Time;durP1;ratioP1;P1;durP2;ratioP2;P2;SDS_P1;SDS_P2;PMS_P1;PMS_P2;Temp;Humidity;BMP_temperature;BMP_pressure;BME280_temperature;BME280_humidity;BME280_pressure;Samples;Min_cycle;Max_cycle;Signal;HPM_P1;HPM_P2
2022/02/28 00:00:12;;;;;;;12.18;8.88;;;;;;;;;;5094239;28;20291;-67
2022/02/28 00:02:41;;;;;;;13.30;8.05;;;;;;;;;;5094335;28;20278;-68
2022/02/28 00:05:09;;;;;;;12.43;8.75;;;;;;;;;;5094092;28;20266;-67
2022/02/28 00:07:36;;;;;;;18.63;9.02;;;;;;;;;;5094532;28;20199;-66
2022/02/28 00:10:05;;;;;;;11.32;8.32;;;;;;;;;;5094474;28;20249;-67
2022/02/28 00:12:32;;;;;;;14.20;8.60;;;;;;;;;;5095068;28;20235;-67
2022/02/28 00:14:59;;;;;;;13.88;9.68;;;;;;;;;;5094050;28;20296;-66
2022/02/28 00:17:27;;;;;;;16.77;9.43;;;;;;;;;;5094387;28;20561;-67
2022/02/28 00:19:55;;;;;;;9.65;8.55;;;;;;;;;;5094427;28;20289;-67
2022/02/28 00:22:22;;;;;;;12.55;8.70;;;;;;;;;;5094443;28;20199;-67
2022/02/28 00:24:50;;;;;;;18.05;9.88;;;;;;;;;;5094130;28;20692;-66
2022/02/28 00:27:17;;;;;;;12.60;8.63;;;;;;;;;;5094100;28;20232;-67
2022/02/28 00:29:45;;;;;;;12.75;9.07;;;;;;;;;;5094464;28;20194;-67
2022/02/28 00:32:13;;;;;;;11.68;8.38;;;;;;;;;;5094340;28;20229;-67
2022/02/28 00:34:40;;;;;;;13.20;9.10;;;;;;;;;;5093900;28;20198;-66
2022/02/28 00:37:08;;;;;;;11.00;9.05;;;;;;;;;;5093947;28;20281;-66
2022/02/28 00:39:36;;;;;;;15.63;9.93;;;;;;;;;;5093748;28;20190;-67
2022/02/28 00:42:03;;;;;;;11.13;8.32;;;;;;;;;;5094213;28;20587;-67
2022/02/28 00:44:30;;;;;;;12.32;8.82;;;;;;;;;;5092984;28;20201;-66
2022/02/28 00:46:57;;;;;;;12.52;9.27;;;;;;;;;;5094027;28;20200;-67
2022/02/28 00:49:25;;;;;;;14.95;9.73;;;;;;;;;;5093956;28;20238;-67
2022/02/28 00:51:52;;;;;;;13.80;9.20;;;;;;;;;;5093920;28;20240;-68
2022/02/28 00:54:21;;;;;;;11.48;8.70;;;;;;;;;;5094045;28;20617;-67
2022/02/28 00:56:49;;;;;;;11.40;8.88;;;;;;;;;;5093951;28;20222;-67
2022/02/28 00:59:16;;;;;;;15.40;9.75;;;;;;;;;;5093745;28;20242;-66
2022/02/28 01:01:43;;;;;;;12.52;9.43;;;;;;;;;;5093373;28;20238;-66
2022/02/28 01:04:10;;;;;;;14.63;9.25;;;;;;;;;;5093710;28;20193;-67
2022/02/28 01:06:37;;;;;;;12.07;9.15;;;;;;;;;;5094115;28;20229;-66
2022/02/28 01:09:05;;;;;;;13.00;9.02;;;;;;;;;;5093298;28;20191;-66
2022/02/28 01:11:34;;;;;;;11.02;9.00;;;;;;;;;;5093415;28;20642;-68
2022/02/28 01:14:02;;;;;;;12.73;8.88;;;;;;;;;;5093575;28;20193;-66
2022/02/28 01:16:29;;;;;;;11.48;8.40;;;;;;;;;;5093238;28;20232;-67
2022/02/28 01:18:56;;;;;;;15.05;9.30;;;;;;;;;;5093598;28;20198;-67
2022/02/28 01:21:23;;;;;;;11.93;8.80;;;;;;;;;;5093739;28;20609;-67
2022/02/28 01:23:51;;;;;;;12.02;9.50;;;;;;;;;;5093501;28;20200;-66
2022/02/28 01:26:18;;;;;;;13.13;9.75;;;;;;;;;;5094016;28;20258;-67
2022/02/28 01:28:47;;;;;;;15.25;9.57;;;;;;;;;;5093463;28;20194;-67
2022/02/28 01:31:14;;;;;;;15.00;9.88;;;;;;;;;;5093089;28;20195;-66
2022/02/28 01:33:41;;;;;;;11.52;9.10;;;;;;;;;;5093339;28;20190;-67
2022/02/28 01:36:09;;;;;;;14.48;9.15;;;;;;;;;;5093371;28;20203;-66
2022/02/28 01:38:36;;;;;;;14.65;9.10;;;;;;;;;;5093512;28;20189;-66
2022/02/28 01:41:03;;;;;;;15.25;9.13;;;;;;;;;;5094039;28;20239;-66
2022/02/28 01:43:31;;;;;;;14.73;9.68;;;;;;;;;;5093293;28;20558;-67
2022/02/28 01:45:59;;;;;;;11.15;8.30;;;;;;;;;;5092898;28;20304;-67
2022/02/28 01:48:26;;;;;;;12.25;9.30;;;;;;;;;;5093306;28;20204;-66
2022/02/28 01:50:54;;;;;;;13.85;9.88;;;;;;;;;;5093249;28;20545;-66
2022/02/28 01:53:21;;;;;;;18.48;9.77;;;;;;;;;;5093218;28;20190;-67
2022/02/28 01:55:49;;;;;;;20.27;10.88;;;;;;;;;;5094370;28;20200;-67
2022/02/28 01:58:16;;;;;;;19.05;9.98;;;;;;;;;;5096920;28;20193;-66
2022/02/28 02:00:43;;;;;;;14.27;9.63;;;;;;;;;;5096965;28;20197;-67
2022/02/28 02:03:12;;;;;;;13.18;10.02;;;;;;;;;;5096831;28;20309;-66
2022/02/28 02:05:39;;;;;;;15.05;10.30;;;;;;;;;;5096737;28;20230;-66
2022/02/28 02:08:08;;;;;;;15.68;10.55;;;;;;;;;;5096700;28;20268;-67
2022/02/28 02:10:35;;;;;;;16.85;11.50;;;;;;;;;;5096779;28;20201;-67
2022/02/28 02:13:03;;;;;;;18.70;10.70;;;;;;;;;;5096374;28;20179;-67
2022/02/28 02:15:31;;;;;;;15.90;10.52;;;;;;;;;;5096295;28;20207;-66
2022/02/28 02:17:59;;;;;;;18.77;11.52;;;;;;;;;;5096275;28;20214;-66
2022/02/28 02:20:34;;;;;;;16.70;11.27;;;;;;;;;;5096896;28;20194;-66
2022/02/28 02:23:03;;;;;;;16.75;11.35;;;;;;;;;;5096547;28;20199;-67
2022/02/28 02:25:30;;;;;;;16.70;11.18;;;;;;;;;;5096522;28;20312;-68
2022/02/28 02:27:57;;;;;;;15.05;10.32;;;;;;;;;;5096424;28;20229;-67
2022/02/28 02:30:25;;;;;;;19.38;11.32;;;;;;;;;;5096330;28;20193;-67
2022/02/28 02:32:52;;;;;;;14.73;9.00;;;;;;;;;;5096038;28;20190;-67
2022/02/28 02:35:20;;;;;;;18.42;11.15;;;;;;;;;;5095926;28;20287;-67
2022/02/28 02:37:48;;;;;;;14.65;11.07;;;;;;;;;;5096249;28;20277;-67
2022/02/28 02:40:15;;;;;;;15.32;12.20;;;;;;;;;;5096540;28;20197;-67
2022/02/28 02:42:43;;;;;;;13.05;9.10;;;;;;;;;;5096100;28;20199;-67
2022/02/28 02:45:11;;;;;;;18.25;11.20;;;;;;;;;;5096034;28;20226;-67
2022/02/28 02:47:38;;;;;;;17.02;11.13;;;;;;;;;;5096006;28;20298;-67
2022/02/28 02:50:06;;;;;;;20.33;12.85;;;;;;;;;;5095899;28;20213;-67
2022/02/28 02:52:34;;;;;;;22.77;12.93;;;;;;;;;;5096460;28;20277;-67
2022/02/28 02:55:02;;;;;;;18.33;11.48;;;;;;;;;;5096309;28;20211;-67
2022/02/28 02:57:30;;;;;;;17.58;11.18;;;;;;;;;;5095628;28;20692;-67
2022/02/28 02:59:57;;;;;;;14.57;10.73;;;;;;;;;;5096257;28;20192;-67
2022/02/28 03:02:24;;;;;;;14.95;10.20;;;;;;;;;;5096202;28;20248;-67
2022/02/28 03:04:51;;;;;;;15.38;10.43;;;;;;;;;;5095652;28;20284;-68
2022/02/28 03:07:19;;;;;;;15.90;10.70;;;;;;;;;;5094576;28;20316;-67
2022/02/28 03:09:46;;;;;;;20.15;11.80;;;;;;;;;;5094898;28;20668;-67
2022/02/28 03:12:15;;;;;;;18.02;10.77;;;;;;;;;;5095790;28;20222;-67
2022/02/28 03:14:44;;;;;;;14.05;11.77;;;;;;;;;;5095110;28;20718;-66
2022/02/28 03:17:11;;;;;;;20.50;11.02;;;;;;;;;;5095911;28;20255;-66
2022/02/28 03:19:38;;;;;;;17.52;10.52;;;;;;;;;;5095066;28;20286;-67
2022/02/28 03:22:05;;;;;;;17.23;10.18;;;;;;;;;;5095508;28;20198;-67
2022/02/28 03:24:32;;;;;;;16.65;10.95;;;;;;;;;;5095525;28;20195;-67
2022/02/28 03:27:00;;;;;;;19.70;11.55;;;;;;;;;;5095129;28;20308;-66
2022/02/28 03:29:28;;;;;;;16.15;10.63;;;;;;;;;;5094876;28;20286;-66
2022/02/28 03:31:56;;;;;;;16.20;10.40;;;;;;;;;;5094817;28;20687;-67
2022/02/28 03:34:23;;;;;;;17.13;11.25;;;;;;;;;;5095079;28;20280;-66
2022/02/28 03:36:50;;;;;;;17.35;11.57;;;;;;;;;;5094731;28;20204;-67
2022/02/28 03:39:17;;;;;;;16.52;12.18;;;;;;;;;;5094685;28;20197;-67
2022/02/28 03:41:45;;;;;;;16.40;11.55;;;;;;;;;;5094572;28;20193;-67
2022/02/28 03:44:12;;;;;;;16.60;11.68;;;;;;;;;;5094870;28;20659;-67
2022/02/28 03:46:41;;;;;;;17.65;11.00;;;;;;;;;;5095144;28;20225;-67
2022/02/28 03:49:08;;;;;;;18.83;11.13;;;;;;;;;;5094800;28;20200;-67
2022/02/28 03:51:35;;;;;;;15.30;11.27;;;;;;;;;;5094772;28;20245;-67
2022/02/28 03:54:02;;;;;;;21.30;10.63;;;;;;;;;;5094369;28;20287;-67
2022/02/28 03:56:29;;;;;;;21.00;11.93;;;;;;;;;;5094894;28;20198;-66
2022/02/28 03:58:57;;;;;;;18.17;11.35;;;;;;;;;;5094254;28;20194;-66
2022/02/28 04:01:24;;;;;;;16.45;11.13;;;;;;;;;;5094553;28;20614;-66
2022/02/28 04:03:52;;;;;;;15.52;10.23;;;;;;;;;;5094667;28;20236;-66
2022/02/28 04:06:20;;;;;;;15.10;10.50;;;;;;;;;;5094696;28;20217;-67
2022/02/28 04:08:47;;;;;;;18.88;11.35;;;;;;;;;;5094139;28;20197;-67
2022/02/28 04:11:14;;;;;;;17.60;11.38;;;;;;;;;;5094576;28;20636;-67
2022/02/28 04:13:41;;;;;;;15.57;10.13;;;;;;;;;;5094056;28;20200;-67
2022/02/28 04:16:09;;;;;;;13.93;10.82;;;;;;;;;;5094343;28;20224;-66
2022/02/28 04:18:36;;;;;;;16.58;12.05;;;;;;;;;;5094283;28;20552;-66
2022/02/28 04:21:04;;;;;;;20.90;13.30;;;;;;;;;;5093915;28;20194;-67
2022/02/28 04:23:32;;;;;;;15.90;11.75;;;;;;;;;;5094143;28;20280;-67
2022/02/28 04:26:00;;;;;;;16.08;11.68;;;;;;;;;;5094095;28;20213;-67
2022/02/28 04:28:28;;;;;;;15.43;11.07;;;;;;;;;;5094282;28;20229;-66
2022/02/28 04:30:55;;;;;;;16.67;10.40;;;;;;;;;;5094077;28;20234;-67
2022/02/28 04:33:22;;;;;;;16.05;11.27;;;;;;;;;;5094679;28;20233;-66
2022/02/28 04:35:50;;;;;;;16.00;9.52;;;;;;;;;;5094266;28;20195;-65
2022/02/28 04:38:20;;;;;;;16.92;10.93;;;;;;;;;;5094109;28;20280;-66
2022/02/28 04:40:48;;;;;;;17.92;11.52;;;;;;;;;;5094343;28;20524;-66
2022/02/28 04:43:15;;;;;;;16.85;11.65;;;;;;;;;;5093599;28;20194;-66
2022/02/28 04:45:42;;;;;;;18.95;11.93;;;;;;;;;;5094282;28;20225;-67
2022/02/28 04:48:09;;;;;;;15.80;11.55;;;;;;;;;;5094274;28;20714;-67
2022/02/28 04:50:37;;;;;;;16.25;12.18;;;;;;;;;;5093547;28;20228;-66
2022/02/28 04:53:04;;;;;;;20.42;11.13;;;;;;;;;;5093463;28;20286;-67
2022/02/28 04:55:34;;;;;;;18.90;12.43;;;;;;;;;;5094026;28;20300;-66
2022/02/28 04:58:01;;;;;;;16.50;10.45;;;;;;;;;;5093444;28;20527;-66
2022/02/28 05:00:28;;;;;;;21.63;11.70;;;;;;;;;;5093381;28;20241;-67
2022/02/28 05:02:56;;;;;;;17.10;11.30;;;;;;;;;;5093317;28;20254;-67
2022/02/28 05:05:24;;;;;;;15.02;11.20;;;;;;;;;;5093664;28;20552;-67
2022/02/28 05:07:51;;;;;;;15.93;11.15;;;;;;;;;;5093488;28;20227;-66
2022/02/28 05:10:18;;;;;;;18.58;11.25;;;;;;;;;;5094018;28;20228;-67
2022/02/28 05:12:47;;;;;;;16.80;11.77;;;;;;;;;;5093618;28;20194;-67
2022/02/28 05:15:14;;;;;;;17.25;11.82;;;;;;;;;;5093550;28;20611;-68
2022/02/28 05:17:41;;;;;;;16.85;11.35;;;;;;;;;;5094163;28;20208;-67
2022/02/28 05:20:09;;;;;;;24.60;12.57;;;;;;;;;;5093636;28;20595;-68
2022/02/28 05:22:36;;;;;;;15.88;11.25;;;;;;;;;;5093695;28;20198;-68
2022/02/28 05:25:04;;;;;;;16.95;12.13;;;;;;;;;;5093453;28;20284;-68
2022/02/28 05:27:36;;;;;;;16.85;12.10;;;;;;;;;;5093060;28;20308;-66
2022/02/28 05:30:06;;;;;;;25.63;12.95;;;;;;;;;;5093995;28;20218;-66
2022/02/28 05:32:33;;;;;;;18.63;11.20;;;;;;;;;;5096801;28;20233;-67
2022/02/28 05:35:00;;;;;;;20.17;13.30;;;;;;;;;;5096641;28;20285;-66
2022/02/28 05:37:27;;;;;;;20.38;13.10;;;;;;;;;;5096933;28;20227;-67
2022/02/28 05:39:55;;;;;;;20.60;12.88;;;;;;;;;;5096188;28;20217;-67
2022/02/28 05:42:22;;;;;;;16.45;10.75;;;;;;;;;;5096477;28;20231;-66
2022/02/28 05:44:49;;;;;;;17.88;12.10;;;;;;;;;;5096047;28;20239;-66
2022/02/28 05:47:18;;;;;;;21.52;13.02;;;;;;;;;;5096089;28;20221;-66
2022/02/28 05:49:45;;;;;;;15.75;12.65;;;;;;;;;;5095988;28;20194;-67
2022/02/28 05:52:12;;;;;;;16.60;12.65;;;;;;;;;;5096579;28;20197;-67
2022/02/28 05:54:40;;;;;;;20.50;12.85;;;;;;;;;;5096004;28;20280;-67
2022/02/28 05:57:07;;;;;;;21.63;11.57;;;;;;;;;;5096448;28;20208;-66
2022/02/28 05:59:34;;;;;;;21.48;12.23;;;;;;;;;;5096550;28;20307;-65
2022/02/28 06:02:02;;;;;;;16.92;11.45;;;;;;;;;;5096522;28;20254;-67
2022/02/28 06:04:30;;;;;;;22.23;12.57;;;;;;;;;;5096325;28;20277;-66
2022/02/28 06:06:58;;;;;;;20.63;12.73;;;;;;;;;;5096406;28;20272;-66
2022/02/28 06:09:25;;;;;;;22.63;12.27;;;;;;;;;;5096386;28;20196;-66
2022/02/28 06:11:52;;;;;;;19.50;11.50;;;;;;;;;;5096464;28;20236;-67
2022/02/28 06:14:20;;;;;;;19.67;12.80;;;;;;;;;;5096861;28;20198;-67
2022/02/28 06:16:48;;;;;;;20.95;12.85;;;;;;;;;;5096610;28;20556;-67
2022/02/28 06:19:15;;;;;;;23.45;13.15;;;;;;;;;;5096133;28;20197;-68
2022/02/28 06:21:44;;;;;;;21.02;13.63;;;;;;;;;;5096261;28;20229;-66
2022/02/28 06:24:11;;;;;;;24.20;11.63;;;;;;;;;;5096224;28;20229;-67
2022/02/28 06:26:38;;;;;;;22.20;14.48;;;;;;;;;;5095644;28;20223;-67
2022/02/28 06:29:05;;;;;;;20.80;13.30;;;;;;;;;;5095719;28;20292;-67
2022/02/28 06:31:32;;;;;;;21.35;12.82;;;;;;;;;;5096021;28;20198;-67
2022/02/28 06:34:00;;;;;;;17.60;12.07;;;;;;;;;;5095778;28;20197;-67
2022/02/28 06:36:27;;;;;;;16.10;11.85;;;;;;;;;;5096486;28;20208;-67
2022/02/28 06:38:56;;;;;;;20.67;12.75;;;;;;;;;;5096181;28;20190;-67
2022/02/28 06:41:23;;;;;;;19.83;13.52;;;;;;;;;;5096029;28;20225;-66
2022/02/28 06:43:50;;;;;;;18.27;12.27;;;;;;;;;;5096871;28;20625;-67
2022/02/28 06:46:17;;;;;;;21.10;13.02;;;;;;;;;;5095793;28;20198;-66
2022/02/28 06:48:45;;;;;;;19.40;14.13;;;;;;;;;;5095303;28;20232;-68
2022/02/28 06:51:12;;;;;;;23.02;13.18;;;;;;;;;;5095478;28;20197;-66
2022/02/28 06:53:39;;;;;;;17.92;11.80;;;;;;;;;;5096305;28;20221;-67
2022/02/28 06:56:08;;;;;;;20.20;13.90;;;;;;;;;;5096332;28;20229;-67
2022/02/28 06:58:35;;;;;;;20.33;12.80;;;;;;;;;;5095980;28;20289;-66
2022/02/28 07:01:03;;;;;;;21.20;12.73;;;;;;;;;;5095121;28;20280;-66
2022/02/28 07:03:31;;;;;;;19.77;13.05;;;;;;;;;;5095674;28;20194;-66
2022/02/28 07:05:58;;;;;;;21.63;12.23;;;;;;;;;;5095603;28;20615;-67
2022/02/28 07:08:26;;;;;;;24.13;14.27;;;;;;;;;;5095233;28;20214;-66
2022/02/28 07:10:54;;;;;;;17.38;12.75;;;;;;;;;;5095170;28;20660;-66
2022/02/28 07:13:24;;;;;;;15.88;12.02;;;;;;;;;;5095608;28;20189;-67
2022/02/28 07:15:52;;;;;;;19.30;12.02;;;;;;;;;;5095429;28;20604;-66
2022/02/28 07:18:19;;;;;;;24.88;14.90;;;;;;;;;;5095531;28;20205;-67
2022/02/28 07:20:46;;;;;;;20.98;13.75;;;;;;;;;;5094865;28;20221;-67
2022/02/28 07:23:14;;;;;;;21.88;14.77;;;;;;;;;;5095186;28;20620;-66
2022/02/28 07:25:41;;;;;;;23.52;13.70;;;;;;;;;;5095362;28;20194;-71
2022/02/28 07:28:09;;;;;;;23.85;13.07;;;;;;;;;;5094628;28;20220;-67
2022/02/28 07:30:38;;;;;;;19.80;13.32;;;;;;;;;;5095041;28;20300;-67
2022/02/28 07:33:05;;;;;;;20.88;13.10;;;;;;;;;;5095022;28;20189;-67
2022/02/28 07:35:33;;;;;;;18.65;12.05;;;;;;;;;;5095092;28;20220;-66
2022/02/28 07:38:00;;;;;;;19.42;12.63;;;;;;;;;;5094604;28;20206;-66
2022/02/28 07:40:27;;;;;;;18.13;12.15;;;;;;;;;;5094202;28;20285;-66
2022/02/28 07:42:55;;;;;;;19.75;12.77;;;;;;;;;;5094271;28;20232;-68
2022/02/28 07:45:22;;;;;;;18.33;11.98;;;;;;;;;;5094564;28;20241;-68
2022/02/28 07:47:51;;;;;;;26.50;13.32;;;;;;;;;;5094054;28;20209;-68
2022/02/28 07:50:18;;;;;;;19.42;12.38;;;;;;;;;;5094570;28;20193;-69
2022/02/28 07:52:45;;;;;;;18.10;12.25;;;;;;;;;;5094760;28;20245;-69
2022/02/28 07:55:13;;;;;;;13.98;11.43;;;;;;;;;;5095071;28;20194;-69
2022/02/28 07:57:40;;;;;;;19.65;12.30;;;;;;;;;;5095457;28;20546;-69
2022/02/28 08:00:08;;;;;;;20.15;11.85;;;;;;;;;;5093901;28;20285;-69
2022/02/28 08:02:35;;;;;;;20.25;13.68;;;;;;;;;;5093805;28;20191;-69
2022/02/28 08:05:04;;;;;;;25.80;17.70;;;;;;;;;;5094736;28;20225;-68
2022/02/28 08:07:31;;;;;;;19.08;14.55;;;;;;;;;;5094058;28;20213;-68
2022/02/28 08:09:59;;;;;;;22.67;14.48;;;;;;;;;;5093820;28;20294;-68
2022/02/28 08:12:28;;;;;;;15.70;11.10;;;;;;;;;;5094706;28;20227;-69
2022/02/28 08:14:56;;;;;;;16.30;11.82;;;;;;;;;;5094722;28;20273;-69
2022/02/28 08:17:23;;;;;;;14.38;9.95;;;;;;;;;;5094335;28;20655;-69
2022/02/28 08:19:50;;;;;;;14.80;10.90;;;;;;;;;;5093817;28;20198;-69
2022/02/28 08:22:19;;;;;;;15.00;11.38;;;;;;;;;;5093640;28;20671;-69
2022/02/28 08:24:46;;;;;;;16.40;10.68;;;;;;;;;;5094411;28;20229;-68
2022/02/28 08:27:13;;;;;;;17.75;11.20;;;;;;;;;;5093695;28;20287;-68
2022/02/28 08:29:40;;;;;;;19.25;11.90;;;;;;;;;;5093364;28;20706;-68
2022/02/28 08:32:08;;;;;;;20.77;11.52;;;;;;;;;;5094078;28;20290;-69
2022/02/28 08:34:35;;;;;;;13.20;10.60;;;;;;;;;;5094007;28;20189;-68
2022/02/28 08:37:02;;;;;;;14.20;9.50;;;;;;;;;;5094030;28;20248;-68
2022/02/28 08:39:31;;;;;;;14.82;11.05;;;;;;;;;;5093603;28;20194;-68
2022/02/28 08:41:58;;;;;;;12.85;10.55;;;;;;;;;;5093775;28;20289;-68
2022/02/28 08:44:25;;;;;;;11.40;8.93;;;;;;;;;;5094398;28;20200;-68
2022/02/28 08:46:53;;;;;;;13.40;10.15;;;;;;;;;;5093029;28;20289;-69
2022/02/28 08:49:20;;;;;;;17.10;9.77;;;;;;;;;;5092569;28;20270;-68
2022/02/28 08:51:47;;;;;;;11.95;10.40;;;;;;;;;;5092964;28;20301;-68
2022/02/28 08:54:15;;;;;;;11.40;9.80;;;;;;;;;;5093299;28;20279;-69
2022/02/28 08:56:43;;;;;;;14.80;9.40;;;;;;;;;;5092990;28;20186;-68
2022/02/28 08:59:11;;;;;;;12.73;9.70;;;;;;;;;;5093134;28;20199;-67
2022/02/28 09:01:38;;;;;;;15.10;11.55;;;;;;;;;;5093946;28;20581;-67
2022/02/28 09:04:05;;;;;;;10.75;8.85;;;;;;;;;;5093739;28;20631;-66
2022/02/28 09:06:33;;;;;;;13.75;10.57;;;;;;;;;;5095358;28;20341;-66
2022/02/28 09:09:00;;;;;;;12.75;8.57;;;;;;;;;;5097288;28;20218;-66
2022/02/28 09:11:27;;;;;;;11.50;8.95;;;;;;;;;;5097660;28;20281;-66
2022/02/28 09:13:56;;;;;;;13.40;8.35;;;;;;;;;;5097773;28;20567;-67
2022/02/28 09:16:23;;;;;;;13.82;9.52;;;;;;;;;;5097423;28;20285;-66
2022/02/28 09:18:50;;;;;;;10.98;8.93;;;;;;;;;;5097586;28;20285;-66
2022/02/28 09:21:18;;;;;;;13.13;8.38;;;;;;;;;;5097139;28;20258;-66
2022/02/28 09:23:45;;;;;;;12.82;8.25;;;;;;;;;;5097197;28;20281;-66
2022/02/28 09:26:12;;;;;;;13.38;9.00;;;;;;;;;;5097194;28;20200;-66
2022/02/28 09:28:39;;;;;;;11.77;8.70;;;;;;;;;;5097280;28;20254;-66
2022/02/28 09:31:08;;;;;;;10.40;7.93;;;;;;;;;;5097484;28;20299;-67
2022/02/28 09:33:35;;;;;;;12.40;8.70;;;;;;;;;;5096999;28;20289;-67
2022/02/28 09:36:04;;;;;;;11.55;9.00;;;;;;;;;;5097273;28;20224;-68
2022/02/28 09:38:31;;;;;;;9.32;8.40;;;;;;;;;;5097149;28;20203;-67
2022/02/28 09:40:58;;;;;;;9.90;8.40;;;;;;;;;;5096886;28;20202;-66
2022/02/28 09:43:26;;;;;;;9.73;8.30;;;;;;;;;;5096851;28;20230;-67
2022/02/28 09:45:54;;;;;;;11.35;9.48;;;;;;;;;;5097156;28;20196;-67
2022/02/28 09:48:23;;;;;;;12.75;8.38;;;;;;;;;;5096964;28;20214;-66
2022/02/28 09:50:51;;;;;;;11.45;8.85;;;;;;;;;;5097078;28;20239;-66
2022/02/28 09:53:18;;;;;;;11.07;8.13;;;;;;;;;;5097194;28;20198;-66
2022/02/28 09:55:45;;;;;;;15.98;8.75;;;;;;;;;;5097373;28;20620;-66
2022/02/28 09:58:12;;;;;;;13.85;9.63;;;;;;;;;;5096917;28;20234;-67
2022/02/28 10:00:43;;;;;;;13.65;8.60;;;;;;;;;;5096521;28;20670;-68
2022/02/28 10:03:11;;;;;;;12.80;8.68;;;;;;;;;;5096595;28;20188;-66
2022/02/28 10:05:39;;;;;;;10.02;8.35;;;;;;;;;;5096816;28;20265;-67
2022/02/28 10:08:06;;;;;;;15.75;8.75;;;;;;;;;;5096749;28;20248;-67
2022/02/28 10:10:35;;;;;;;10.52;8.18;;;;;;;;;;5096362;28;20731;-67
2022/02/28 10:13:02;;;;;;;13.85;8.45;;;;;;;;;;5096947;28;20181;-67
2022/02/28 10:15:29;;;;;;;15.95;9.00;;;;;;;;;;5096656;28;20198;-66
2022/02/28 10:17:57;;;;;;;13.13;8.30;;;;;;;;;;5096224;28;20747;-67
2022/02/28 10:20:25;;;;;;;14.50;10.70;;;;;;;;;;5096472;28;20232;-67
2022/02/28 10:22:55;;;;;;;11.23;8.90;;;;;;;;;;5096340;28;20644;-67
2022/02/28 10:25:26;;;;;;;11.27;8.68;;;;;;;;;;5095991;28;20231;-67
2022/02/28 10:28:07;;;;;;;9.55;8.00;;;;;;;;;;5096147;28;20255;-67
2022/02/28 10:30:34;;;;;;;8.27;7.07;;;;;;;;;;5095940;28;20223;-68
2022/02/28 10:33:08;;;;;;;7.50;6.70;;;;;;;;;;5096444;28;20282;-67
2022/02/28 10:38:25;;;;;;;8.45;7.65;;;;;;;;;;5096145;28;20557;-67
2022/02/28 10:40:53;;;;;;;10.27;8.75;;;;;;;;;;5096765;28;20275;-67
2022/02/28 10:43:24;;;;;;;10.52;8.32;;;;;;;;;;5096396;28;20237;-67
2022/02/28 10:45:52;;;;;;;10.50;7.55;;;;;;;;;;5095922;28;20291;-67
2022/02/28 10:48:19;;;;;;;9.15;7.55;;;;;;;;;;5094900;28;20211;-67
2022/02/28 10:50:46;;;;;;;13.32;7.82;;;;;;;;;;5094930;28;20223;-66
2022/02/28 10:53:14;;;;;;;10.90;7.80;;;;;;;;;;5094668;28;20211;-67
2022/02/28 10:55:43;;;;;;;10.20;7.75;;;;;;;;;;5095050;28;20288;-68
2022/02/28 10:58:11;;;;;;;8.57;7.60;;;;;;;;;;5095157;28;20262;-67
2022/02/28 11:00:51;;;;;;;9.75;8.63;;;;;;;;;;5095219;28;20197;-67
2022/02/28 11:03:18;;;;;;;10.20;7.60;;;;;;;;;;5095087;28;20183;-67
2022/02/28 11:05:56;;;;;;;8.35;7.45;;;;;;;;;;5095175;28;20551;-66
2022/02/28 11:08:23;;;;;;;10.07;8.30;;;;;;;;;;5094914;28;20295;-67
2022/02/28 11:10:53;;;;;;;9.18;7.25;;;;;;;;;;5094808;28;20229;-67
2022/02/28 11:13:26;;;;;;;10.07;7.10;;;;;;;;;;5095477;28;20200;-68
2022/02/28 11:15:53;;;;;;;10.00;8.35;;;;;;;;;;5095124;28;20276;-66
2022/02/28 11:18:23;;;;;;;8.30;7.45;;;;;;;;;;5095761;28;20203;-68
2022/02/28 11:20:55;;;;;;;9.95;7.18;;;;;;;;;;5094983;28;20235;-68
2022/02/28 11:23:22;;;;;;;9.85;7.78;;;;;;;;;;5094923;28;20214;-67
2022/02/28 11:25:50;;;;;;;10.80;8.02;;;;;;;;;;5094831;28;20288;-67
2022/02/28 11:28:19;;;;;;;9.70;8.32;;;;;;;;;;5093469;28;20303;-67
2022/02/28 11:30:47;;;;;;;8.82;7.20;;;;;;;;;;5093913;28;20191;-68
2022/02/28 11:33:15;;;;;;;9.70;8.00;;;;;;;;;;5094556;28;20252;-67
2022/02/28 11:35:46;;;;;;;10.63;7.63;;;;;;;;;;5095028;28;20201;-67
2022/02/28 11:38:14;;;;;;;10.10;8.18;;;;;;;;;;5095146;28;20242;-67
2022/02/28 11:40:42;;;;;;;13.45;7.20;;;;;;;;;;5095252;28;20615;-67
2022/02/28 11:43:11;;;;;;;10.50;7.00;;;;;;;;;;5094836;28;20193;-67
2022/02/28 11:45:49;;;;;;;10.75;8.38;;;;;;;;;;5094778;28;20197;-67
2022/02/28 11:48:27;;;;;;;12.38;7.55;;;;;;;;;;5093474;28;20212;-67
2022/02/28 11:50:55;;;;;;;18.02;8.63;;;;;;;;;;5094258;28;20200;-67
2022/02/28 11:53:39;;;;;;;10.57;7.97;;;;;;;;;;5094156;28;20677;-68
2022/02/28 11:56:26;;;;;;;9.35;7.55;;;;;;;;;;5094224;28;20231;-67
2022/02/28 11:58:55;;;;;;;9.35;7.05;;;;;;;;;;5094341;28;20217;-68
2022/02/28 12:01:28;;;;;;;11.63;7.20;;;;;;;;;;5094568;28;20247;-67
2022/02/28 12:04:11;;;;;;;8.45;6.63;;;;;;;;;;5094879;28;20185;-68
2022/02/28 12:06:51;;;;;;;17.75;8.15;;;;;;;;;;5093662;28;20191;-66
2022/02/28 12:09:36;;;;;;;9.77;7.28;;;;;;;;;;5093604;28;20221;-67
2022/02/28 12:12:22;;;;;;;9.35;6.45;;;;;;;;;;5093664;28;20258;-67
2022/02/28 12:15:07;;;;;;;8.70;6.78;;;;;;;;;;5094578;28;20196;-68
2022/02/28 12:17:49;;;;;;;10.57;7.97;;;;;;;;;;5093834;28;20670;-67
2022/02/28 12:20:19;;;;;;;10.43;7.03;;;;;;;;;;5094422;28;20199;-66
2022/02/28 12:23:08;;;;;;;15.45;7.80;;;;;;;;;;5094267;28;20594;-67
2022/02/28 12:25:36;;;;;;;17.42;9.00;;;;;;;;;;5093541;28;20204;-67
2022/02/28 12:28:15;;;;;;;11.32;7.20;;;;;;;;;;5092955;28;20292;-66
2022/02/28 12:30:44;;;;;;;24.23;8.38;;;;;;;;;;5093972;28;20185;-66
2022/02/28 12:33:12;;;;;;;11.75;7.40;;;;;;;;;;5093937;28;20189;-67
2022/02/28 12:35:50;;;;;;;10.52;8.85;;;;;;;;;;5093573;28;20200;-67
2022/02/28 12:38:18;;;;;;;14.32;8.70;;;;;;;;;;5093824;28;20274;-67
2022/02/28 12:40:48;;;;;;;12.75;6.65;;;;;;;;;;5093663;28;20280;-67
2022/02/28 12:43:19;;;;;;;10.50;8.05;;;;;;;;;;5093731;28;20712;-68
2022/02/28 12:45:47;;;;;;;9.88;7.28;;;;;;;;;;5093422;28;20197;-67
2022/02/28 12:48:15;;;;;;;9.90;6.75;;;;;;;;;;5092662;28;20193;-66
2022/02/28 12:50:47;;;;;;;8.50;7.43;;;;;;;;;;5092777;28;20283;-67
2022/02/28 12:53:16;;;;;;;13.20;7.57;;;;;;;;;;5093974;28;20201;-67
2022/02/28 12:55:53;;;;;;;11.77;8.70;;;;;;;;;;5093540;28;20197;-67
2022/02/28 12:58:21;;;;;;;9.13;7.43;;;;;;;;;;5093602;28;20228;-66
2022/02/28 13:00:49;;;;;;;10.98;8.52;;;;;;;;;;5093557;28;20201;-67
2022/02/28 13:03:16;;;;;;;11.57;7.67;;;;;;;;;;5093299;28;20387;-66
2022/02/28 13:05:57;;;;;;;11.68;9.60;;;;;;;;;;5093114;28;20936;-67
2022/02/28 13:08:24;;;;;;;9.88;7.60;;;;;;;;;;5092658;28;20646;-67
2022/02/28 13:11:06;;;;;;;11.35;8.20;;;;;;;;;;5092719;28;20236;-67
2022/02/28 13:13:33;;;;;;;12.43;8.47;;;;;;;;;;5093806;28;20282;-66
2022/02/28 13:16:02;;;;;;;11.63;8.40;;;;;;;;;;5093474;28;21005;-68
2022/02/28 13:18:29;;;;;;;14.73;8.93;;;;;;;;;;5093689;28;20189;-67
2022/02/28 13:20:58;;;;;;;10.18;8.45;;;;;;;;;;5093613;28;20190;-67
2022/02/28 13:23:26;;;;;;;12.32;7.50;;;;;;;;;;5093912;28;20291;-67
2022/02/28 13:25:53;;;;;;;11.27;7.85;;;;;;;;;;5093253;28;20569;-67
2022/02/28 13:28:28;;;;;;;12.82;7.75;;;;;;;;;;5092284;28;20238;-66
2022/02/28 13:30:56;;;;;;;10.77;8.00;;;;;;;;;;5092821;28;20622;-66
2022/02/28 13:33:24;;;;;;;11.20;7.30;;;;;;;;;;5093357;28;20654;-66
2022/02/28 13:35:51;;;;;;;8.60;7.43;;;;;;;;;;5091928;28;20193;-66
2022/02/28 13:38:20;;;;;;;10.30;7.28;;;;;;;;;;5093189;28;20286;-66
2022/02/28 13:40:48;;;;;;;9.93;7.15;;;;;;;;;;5093052;28;20207;-68
2022/02/28 13:43:15;;;;;;;6.60;6.00;;;;;;;;;;5093377;28;20620;-68
2022/02/28 13:45:43;;;;;;;9.43;7.30;;;;;;;;;;5092480;28;20199;-67
2022/02/28 13:48:18;;;;;;;11.07;7.97;;;;;;;;;;5092238;28;20225;-67
2022/02/28 13:50:46;;;;;;;8.55;6.57;;;;;;;;;;5092015;28;20256;-67
2022/02/28 13:53:13;;;;;;;9.70;7.17;;;;;;;;;;5095702;28;20282;-67
2022/02/28 13:55:44;;;;;;;9.43;7.80;;;;;;;;;;5096724;28;20526;-67
2022/02/28 13:58:12;;;;;;;9.95;6.72;;;;;;;;;;5096459;28;20177;-67
2022/02/28 14:00:50;;;;;;;8.20;6.93;;;;;;;;;;5096693;28;20236;-67
2022/02/28 14:03:18;;;;;;;7.65;6.25;;;;;;;;;;5096841;28;20462;-67
2022/02/28 14:05:47;;;;;;;10.30;7.17;;;;;;;;;;5096242;28;20597;-67
2022/02/28 14:08:16;;;;;;;13.88;6.72;;;;;;;;;;5096026;28;20443;-66
2022/02/28 14:10:45;;;;;;;9.23;6.53;;;;;;;;;;5095462;28;20361;-67
2022/02/28 14:13:17;;;;;;;10.82;6.63;;;;;;;;;;5096198;28;20200;-68
2022/02/28 14:15:44;;;;;;;9.30;7.93;;;;;;;;;;5096486;28;20241;-67
2022/02/28 14:18:12;;;;;;;8.45;6.18;;;;;;;;;;5095984;28;20440;-67
2022/02/28 14:20:39;;;;;;;8.60;6.23;;;;;;;;;;5095976;28;20251;-67
2022/02/28 14:23:08;;;;;;;10.02;7.00;;;;;;;;;;5096252;28;20439;-67
2022/02/28 14:25:36;;;;;;;8.77;6.20;;;;;;;;;;5095679;28;20198;-67
2022/02/28 14:28:14;;;;;;;7.70;6.30;;;;;;;;;;5095394;28;21013;-66
2022/02/28 14:30:41;;;;;;;7.33;6.10;;;;;;;;;;5095621;28;20462;-67
2022/02/28 14:33:09;;;;;;;8.03;6.67;;;;;;;;;;5095756;28;20522;-67
2022/02/28 14:35:37;;;;;;;10.57;6.90;;;;;;;;;;5095982;28;20449;-66